createdAt,value
2022-11-19T00:01:04.843Z,98480.78
2022-11-19T00:04:09.347Z,98474.47
2022-11-19T00:07:13.126Z,98473.84
2022-11-19T00:10:17.181Z,98468.81
2022-11-19T00:13:22.443Z,98479.09
2022-11-19T00:16:26.194Z,98480.53
2022-11-19T00:19:29.913Z,98480.59
2022-11-19T00:22:33.538Z,98485.28
2022-11-19T00:25:37.394Z,98480.88
2022-11-19T00:28:43.411Z,98487.91
2022-11-19T00:31:47.265Z,98491.16
2022-11-19T00:34:50.964Z,98484.56
2022-11-19T00:37:54.694Z,98504.53
2022-11-19T00:40:58.556Z,98511.38
2022-11-19T00:44:03.742Z,98521.84
2022-11-19T00:47:07.585Z,98520.69
2022-11-19T00:50:11.533Z,98527.38
2022-11-19T00:53:15.345Z,98511.38
2022-11-19T00:56:21.385Z,98531.59
2022-11-19T00:59:26.690Z,98526.25
2022-11-19T01:02:30.351Z,98527.72
2022-11-19T01:05:34.285Z,98534.47
2022-11-19T01:08:38.483Z,98538.34
2022-11-19T01:11:42.169Z,98546.41
2022-11-19T01:14:47.213Z,98554.97
2022-11-19T01:17:50.890Z,98559.09
2022-11-19T01:20:54.664Z,98549.53
2022-11-19T01:23:59.284Z,98561.00
2022-11-19T01:27:02.994Z,98580.28
2022-11-19T01:30:10.032Z,98586.59
2022-11-19T01:33:14.244Z,98594.88
2022-11-19T01:36:20.776Z,98596.22
2022-11-19T01:39:24.475Z,98588.75
2022-11-19T01:42:48.364Z,98608.78
2022-11-19T01:45:54.714Z,98629.72
2022-11-19T01:49:03.085Z,98629.25
2022-11-19T01:52:06.747Z,98621.72
2022-11-19T01:55:11.673Z,98637.72
2022-11-19T01:58:18.924Z,98655.31
2022-11-19T02:01:24.498Z,98654.84
2022-11-19T02:04:30.485Z,98657.19
2022-11-19T02:07:37.555Z,98666.84
2022-11-19T02:10:49.914Z,98655.50
2022-11-19T02:14:04.752Z,98662.44
2022-11-19T02:17:19.614Z,98670.59
2022-11-19T02:20:43.772Z,98659.00
2022-11-19T02:24:19.015Z,98652.19
2022-11-19T02:28:01.837Z,98651.59
2022-11-19T02:31:12.536Z,98635.25
2022-11-19T02:34:19.452Z,98630.78
2022-11-19T02:37:30.736Z,98634.56
2022-11-19T02:40:41.006Z,98638.97
2022-11-19T02:43:47.416Z,98633.78
2022-11-19T02:46:55.464Z,98643.00
2022-11-19T02:50:04.617Z,98643.28
2022-11-19T02:53:08.473Z,98655.19
2022-11-19T02:56:18.066Z,98651.59
2022-11-19T02:59:57.155Z,98649.50
2022-11-19T03:03:27.506Z,98649.75
2022-11-19T03:06:32.950Z,98657.28
2022-11-19T03:09:40.936Z,98656.34
2022-11-19T03:12:51.416Z,98659.09
2022-11-19T03:16:15.377Z,98657.38
2022-11-19T03:19:37.148Z,98664.69
2022-11-19T03:22:48.599Z,98664.94
2022-11-19T03:25:56.048Z,98709.22
2022-11-19T03:29:03.676Z,98698.44
2022-11-19T03:32:11.548Z,98710.44
2022-11-19T03:35:21.446Z,98715.16
2022-11-19T03:38:29.235Z,98719.31
2022-11-19T03:41:35.044Z,98721.13
2022-11-19T03:44:44.515Z,98719.59
2022-11-19T03:47:51.157Z,98736.84
2022-11-19T03:50:59.795Z,98725.84
2022-11-19T03:54:04.157Z,98750.91
2022-11-19T03:57:09.738Z,98768.53
2022-11-19T04:00:14.279Z,98763.06
2022-11-19T04:03:18.717Z,98765.78
2022-11-19T04:06:23.817Z,98765.09
2022-11-19T04:09:27.954Z,98772.25
2022-11-19T04:12:31.494Z,98764.13
2022-11-19T04:15:35.239Z,98754.16
2022-11-19T04:18:38.881Z,98759.72
2022-11-19T04:21:43.998Z,98781.03
2022-11-19T04:24:47.659Z,98800.66
2022-11-19T04:27:51.250Z,98803.31
2022-11-19T04:30:55.159Z,98801.38
2022-11-19T04:33:58.746Z,98794.00
2022-11-19T04:37:03.716Z,98798.34
2022-11-19T04:40:08.677Z,98805.69
2022-11-19T04:43:12.209Z,98813.69
2022-11-19T04:46:15.755Z,98813.34
2022-11-19T04:49:19.730Z,98824.00
2022-11-19T04:52:25.026Z,98817.75
2022-11-19T04:55:28.719Z,98818.78
2022-11-19T04:58:32.475Z,98837.59
2022-11-19T05:01:36.242Z,98844.19
2022-11-19T05:04:40.053Z,98838.63
2022-11-19T05:07:45.153Z,98839.63
2022-11-19T05:10:48.736Z,98855.44
2022-11-19T05:13:52.573Z,98869.19
2022-11-19T05:16:56.166Z,98869.88
2022-11-19T05:20:00.424Z,98868.75
2022-11-19T05:23:05.586Z,98880.13
2022-11-19T05:26:09.359Z,98882.75
2022-11-19T05:29:13.066Z,98892.44
2022-11-19T05:32:16.797Z,98888.91
2022-11-19T05:35:20.660Z,98894.72
2022-11-19T05:38:25.913Z,98905.50
2022-11-19T05:41:29.629Z,98912.31
2022-11-19T05:44:33.316Z,98911.38
2022-11-19T05:47:37.317Z,98925.94
2022-11-19T05:50:43.287Z,98925.75
2022-11-19T05:53:48.570Z,98931.31
2022-11-19T05:56:52.280Z,98941.97
2022-11-19T05:59:56.057Z,98949.94
2022-11-19T06:02:59.812Z,98966.13
2022-11-19T06:06:03.606Z,98964.00
2022-11-19T06:09:09.086Z,98975.03
2022-11-19T06:12:12.747Z,98988.78
2022-11-19T06:15:16.666Z,98998.06
2022-11-19T06:18:20.398Z,98992.69
2022-11-19T06:21:24.066Z,98987.47
2022-11-19T06:24:30.166Z,98993.66
2022-11-19T06:27:33.808Z,98994.91
2022-11-19T06:30:37.806Z,98993.88
2022-11-19T06:33:42.586Z,98995.03
2022-11-19T06:36:50.341Z,99003.03
2022-11-19T06:39:56.521Z,99007.72
2022-11-19T06:43:00.176Z,99013.91
2022-11-19T06:46:04.021Z,99017.28
2022-11-19T06:49:07.747Z,99014.25
2022-11-19T06:52:11.446Z,99014.44
2022-11-19T06:55:16.816Z,99018.56
2022-11-19T06:58:20.939Z,99023.69
2022-11-19T07:01:24.693Z,99027.09
2022-11-19T07:04:28.527Z,99031.75
2022-11-19T07:07:32.505Z,99029.69
2022-11-19T07:10:37.827Z,99035.78
2022-11-19T07:13:55.299Z,99029.69
2022-11-19T07:16:59.020Z,99037.94
2022-11-19T07:20:02.767Z,99037.53
2022-11-19T07:23:11.171Z,99058.31
2022-11-19T07:26:16.569Z,99043.28
2022-11-19T07:29:20.448Z,99046.72
2022-11-19T07:32:24.377Z,99047.41
2022-11-19T07:35:28.068Z,99049.84
2022-11-19T07:38:36.823Z,99049.25
2022-11-19T07:42:08.027Z,99059.78
2022-11-19T07:45:12.457Z,99055.56
2022-11-19T07:48:16.635Z,99066.16
2022-11-19T07:51:20.348Z,99075.16
2022-11-19T07:54:24.027Z,99072.47
2022-11-19T07:57:30.456Z,99084.56
2022-11-19T08:00:34.484Z,99084.78
2022-11-19T08:03:38.277Z,99092.28
2022-11-19T08:06:42.557Z,99096.75
2022-11-19T08:09:46.287Z,99091.72
2022-11-19T08:13:03.388Z,99098.63
2022-11-19T08:16:11.845Z,99097.19
2022-11-19T08:19:16.740Z,99083.75
2022-11-19T08:22:22.155Z,99083.53
2022-11-19T08:25:25.797Z,99101.34
2022-11-19T08:28:31.428Z,99093.28
2022-11-19T08:31:35.297Z,99098.28
2022-11-19T08:34:40.388Z,99103.53
2022-11-19T08:37:44.147Z,99112.13
2022-11-19T08:40:53.687Z,99114.63
2022-11-19T08:44:00.917Z,99117.22
2022-11-19T08:47:04.656Z,99132.03
2022-11-19T08:50:08.866Z,99123.47
2022-11-19T08:53:12.676Z,99130.34
2022-11-19T08:56:18.178Z,99128.28
2022-11-19T08:59:23.766Z,99126.66
2022-11-19T09:02:27.567Z,99131.06
2022-11-19T09:05:31.356Z,99129.38
2022-11-19T09:08:35.858Z,99115.56
2022-11-19T09:11:42.661Z,99122.47
2022-11-19T09:14:49.436Z,99106.44
2022-11-19T09:17:53.718Z,99107.81
2022-11-19T09:20:58.206Z,99105.41
2022-11-19T09:24:01.990Z,99111.97
2022-11-19T09:27:06.187Z,99113.41
2022-11-19T09:30:12.009Z,99119.91
2022-11-19T09:33:16.036Z,99106.50
2022-11-19T09:36:20.836Z,99107.13
2022-11-19T09:39:24.656Z,99105.09
2022-11-19T09:42:38.436Z,99105.41
2022-11-19T09:45:52.457Z,99095.66
2022-11-19T09:49:02.948Z,99087.88
2022-11-19T09:52:11.866Z,99089.16
2022-11-19T09:55:25.588Z,99078.72
2022-11-19T09:58:35.028Z,99074.69
2022-11-19T10:01:40.376Z,99076.31
2022-11-19T10:04:47.467Z,99062.53
2022-11-19T10:08:00.466Z,99059.84
2022-11-19T10:11:19.026Z,99055.22
2022-11-19T10:14:49.246Z,99069.63
2022-11-19T10:18:05.158Z,99069.03
2022-11-19T10:21:14.655Z,99070.06
2022-11-19T10:24:30.946Z,99061.84
2022-11-19T10:27:44.476Z,99065.06
2022-11-19T10:30:51.656Z,99051.53
2022-11-19T10:34:16.056Z,99053.94
2022-11-19T10:37:23.136Z,99055.81
2022-11-19T10:40:33.271Z,99054.03
2022-11-19T10:43:49.078Z,99059.19
2022-11-19T10:46:52.937Z,99053.09
2022-11-19T10:49:58.519Z,99036.63
2022-11-19T10:53:13.406Z,99055.88
2022-11-19T10:56:21.132Z,99048.78
2022-11-19T10:59:27.811Z,99048.53
2022-11-19T11:02:35.475Z,99044.00
2022-11-19T11:05:56.969Z,99046.00
2022-11-19T11:09:00.594Z,99036.72
2022-11-19T11:12:30.786Z,99027.19
2022-11-19T11:15:34.586Z,99020.19
2022-11-19T11:18:41.528Z,99031.28
2022-11-19T11:21:47.286Z,99030.88
2022-11-19T11:24:51.056Z,99034.50
2022-11-19T11:28:06.868Z,99023.75
2022-11-19T11:31:12.224Z,99025.25
2022-11-19T11:34:30.810Z,99034.25
2022-11-19T11:37:36.217Z,99037.88
2022-11-19T11:40:40.005Z,99032.66
2022-11-19T11:44:01.564Z,99032.13
2022-11-19T11:47:12.395Z,99022.91
2022-11-19T11:50:20.466Z,99028.47
2022-11-19T11:53:32.835Z,99035.63
2022-11-19T11:56:36.627Z,99036.69
2022-11-19T11:59:40.427Z,99019.28
2022-11-19T12:03:03.086Z,99011.66
2022-11-19T12:06:13.948Z,99021.94
2022-11-19T12:09:27.384Z,99025.78
2022-11-19T12:12:40.977Z,99014.38
2022-11-19T12:15:55.937Z,99014.50
2022-11-19T12:19:15.687Z,99014.38
2022-11-19T12:22:30.637Z,99007.03
2022-11-19T12:25:42.168Z,98997.38
2022-11-19T12:29:04.367Z,98993.00
2022-11-19T12:32:20.544Z,99011.63
2022-11-19T12:35:47.017Z,99015.00
2022-11-19T12:38:59.346Z,99025.19
2022-11-19T12:42:21.887Z,99022.63
2022-11-19T12:45:37.130Z,99023.34
2022-11-19T12:49:02.342Z,99013.97
2022-11-19T12:52:33.011Z,99015.03
2022-11-19T12:55:48.820Z,99028.00
2022-11-19T12:59:02.452Z,99033.88
2022-11-19T13:02:17.092Z,99021.13
2022-11-19T13:05:23.814Z,99018.91
2022-11-19T13:08:32.712Z,99017.19
2022-11-19T13:11:41.281Z,99024.44
2022-11-19T13:14:54.900Z,99032.00
2022-11-19T13:18:03.801Z,99023.69
2022-11-19T13:21:16.544Z,99031.63
2022-11-19T13:24:29.520Z,99011.47
2022-11-19T13:27:42.783Z,99035.50
2022-11-19T13:30:52.541Z,99037.50
2022-11-19T13:34:01.733Z,99046.66
2022-11-19T13:37:17.251Z,99054.16
2022-11-19T13:40:31.031Z,99056.38
2022-11-19T13:44:00.873Z,99054.97
2022-11-19T13:47:14.712Z,99058.00
2022-11-19T13:50:22.531Z,99059.22
2022-11-19T13:53:34.026Z,99063.97
2022-11-19T13:56:44.696Z,99061.44
2022-11-19T13:59:50.706Z,99058.75
2022-11-19T14:03:16.159Z,99055.97
2022-11-19T14:06:40.947Z,99052.94
2022-11-19T14:09:57.046Z,99065.25
2022-11-19T14:13:28.971Z,99073.91
2022-11-19T14:16:58.808Z,99064.97
2022-11-19T14:20:21.537Z,99066.00
2022-11-19T14:24:04.358Z,99068.06
2022-11-19T14:27:21.036Z,99061.78
2022-11-19T14:31:04.048Z,99059.97
2022-11-19T14:34:27.276Z,99042.91
2022-11-19T14:37:40.597Z,99044.16
2022-11-19T14:40:45.336Z,99082.41
2022-11-19T14:44:12.206Z,99068.19
2022-11-19T14:47:35.668Z,99086.63
2022-11-19T14:50:39.496Z,99086.84
2022-11-19T14:53:52.929Z,99087.44
2022-11-19T14:57:25.435Z,99095.75
2022-11-19T15:00:33.026Z,99075.88
2022-11-19T15:03:38.136Z,99072.81
2022-11-19T15:06:42.087Z,99075.06
2022-11-19T15:10:11.107Z,99076.88
2022-11-19T15:13:21.247Z,99073.00
2022-11-19T15:16:28.437Z,99070.13
2022-11-19T15:19:41.507Z,99068.94
2022-11-19T15:22:54.466Z,99075.81
2022-11-19T15:26:09.026Z,99066.50
2022-11-19T15:29:22.038Z,99069.13
2022-11-19T15:32:36.243Z,99079.69
2022-11-19T15:36:18.603Z,99071.97
2022-11-19T15:39:29.684Z,99073.19
2022-11-19T15:42:44.963Z,99089.63
2022-11-19T15:45:52.752Z,99079.25
2022-11-19T15:49:04.184Z,99069.31
2022-11-19T15:52:18.133Z,99085.13
2022-11-19T15:55:27.083Z,99081.09
2022-11-19T15:58:38.665Z,99077.84
2022-11-19T16:01:43.655Z,99067.28
2022-11-19T16:04:50.177Z,99063.00
2022-11-19T16:07:54.677Z,99073.31
2022-11-19T16:11:20.286Z,99077.84
2022-11-19T16:14:45.638Z,99094.06
2022-11-19T16:17:53.514Z,99092.00
2022-11-19T16:21:00.464Z,99086.69
2022-11-19T16:24:25.640Z,99085.88
2022-11-19T16:27:31.824Z,99090.16
2022-11-19T16:30:46.567Z,99093.22
2022-11-19T16:33:56.453Z,99110.06
2022-11-19T16:37:00.961Z,99099.91
2022-11-19T16:40:05.654Z,99089.94
2022-11-19T16:43:08.554Z,99075.34
2022-11-19T16:46:17.975Z,99084.63
2022-11-19T16:49:32.795Z,99081.19
2022-11-19T16:52:44.702Z,99081.94
2022-11-19T16:55:54.183Z,99082.81
2022-11-19T16:59:01.023Z,99086.84
2022-11-19T17:02:06.378Z,99086.22
2022-11-19T17:05:13.769Z,99079.75
2022-11-19T17:08:23.978Z,99077.59
2022-11-19T17:11:59.161Z,99084.88
2022-11-19T17:15:04.725Z,99097.69
2022-11-19T17:18:21.143Z,99099.88
2022-11-19T17:21:27.843Z,99103.38
2022-11-19T17:24:33.984Z,99105.19
2022-11-19T17:27:39.633Z,99118.13
2022-11-19T17:30:46.243Z,99121.38
2022-11-19T17:33:54.344Z,99132.31
2022-11-19T17:36:58.343Z,99129.31
2022-11-19T17:40:02.093Z,99116.94
2022-11-19T17:43:27.723Z,99117.56
2022-11-19T17:46:31.683Z,99087.34
2022-11-19T17:49:37.073Z,99078.59
2022-11-19T17:52:40.884Z,99085.25
2022-11-19T17:55:46.020Z,99108.59
2022-11-19T17:58:49.962Z,99100.09
2022-11-19T18:01:54.298Z,99096.47
2022-11-19T18:04:59.583Z,99110.81
2022-11-19T18:08:03.334Z,99121.47
2022-11-19T18:11:07.585Z,99115.41
2022-11-19T18:14:12.817Z,99118.44
2022-11-19T18:17:17.323Z,99105.91
2022-11-19T18:20:22.463Z,99113.13
2022-11-19T18:23:27.203Z,99117.97
2022-11-19T18:26:30.915Z,99123.44
2022-11-19T18:29:34.654Z,99114.06
2022-11-19T18:32:38.763Z,99122.84
2022-11-19T18:35:43.944Z,99127.78
2022-11-19T18:38:47.863Z,99142.72
2022-11-19T18:41:52.133Z,99147.75
2022-11-19T18:44:55.983Z,99139.91
2022-11-19T18:48:00.333Z,99135.13
2022-11-19T18:51:05.504Z,99127.72
2022-11-19T18:54:11.563Z,99133.38
2022-11-19T18:57:15.304Z,99133.28
2022-11-19T19:00:19.954Z,99131.50
2022-11-19T19:03:23.963Z,99151.41
2022-11-19T19:06:29.093Z,99143.47
2022-11-19T19:09:32.813Z,99149.75
2022-11-19T19:12:36.624Z,99125.53
2022-11-19T19:15:40.574Z,99120.03
2022-11-19T19:18:44.483Z,99137.19
2022-11-19T19:21:49.734Z,99113.09
2022-11-19T19:24:57.907Z,99110.00
2022-11-19T19:28:02.113Z,99126.28
2022-11-19T19:31:05.894Z,99150.75
2022-11-19T19:34:09.613Z,99153.66
2022-11-19T19:37:14.953Z,99146.47
2022-11-19T19:40:18.723Z,99143.16
2022-11-19T19:43:22.653Z,99136.75
2022-11-19T19:46:26.375Z,99140.28
2022-11-19T19:49:32.454Z,99152.84
2022-11-19T19:52:41.004Z,99134.69
2022-11-19T19:55:44.753Z,99121.34
2022-11-19T19:58:49.535Z,99117.72
2022-11-19T20:01:53.280Z,99122.91
2022-11-19T20:04:56.944Z,99107.00
2022-11-19T20:08:02.166Z,99111.94
2022-11-19T20:11:08.272Z,99124.78
2022-11-19T20:14:12.062Z,99108.97
2022-11-19T20:17:15.687Z,99112.94
2022-11-19T20:20:19.671Z,99123.66
2022-11-19T20:23:24.874Z,99105.50
2022-11-19T20:26:31.250Z,99104.66
2022-11-19T20:29:35.104Z,99115.66
2022-11-19T20:32:38.813Z,99107.25
2022-11-19T20:35:51.740Z,99099.81
2022-11-19T20:38:59.110Z,99082.25
2022-11-19T20:42:19.813Z,99100.13
2022-11-19T20:45:23.962Z,99050.75
2022-11-19T20:48:27.675Z,99085.38
2022-11-19T20:51:33.055Z,99065.69
2022-11-19T20:54:38.325Z,99052.31
2022-11-19T20:57:41.994Z,99072.88
2022-11-19T21:00:47.555Z,99053.94
2022-11-19T21:03:51.373Z,99041.66
2022-11-19T21:06:55.232Z,99068.59
2022-11-19T21:10:06.274Z,99048.81
2022-11-19T21:13:11.456Z,99047.88
2022-11-19T21:16:16.874Z,99034.97
2022-11-19T21:19:21.145Z,99037.53
2022-11-19T21:22:25.186Z,99051.44
2022-11-19T21:25:30.444Z,99033.94
2022-11-19T21:28:35.034Z,99024.38
2022-11-19T21:31:45.772Z,99039.16
2022-11-19T21:34:49.493Z,99015.75
2022-11-19T21:37:53.283Z,99045.44
2022-11-19T21:40:58.524Z,99034.72
2022-11-19T21:44:03.234Z,99024.56
2022-11-19T21:47:07.063Z,99018.88
2022-11-19T21:50:10.865Z,99014.88
2022-11-19T21:53:14.672Z,99018.28
2022-11-19T21:56:19.823Z,99020.00
2022-11-19T21:59:23.797Z,99001.47
2022-11-19T22:02:27.583Z,98997.19
2022-11-19T22:05:31.383Z,98991.84
2022-11-19T22:08:36.703Z,99009.81
2022-11-19T22:11:41.901Z,98987.03
2022-11-19T22:14:45.603Z,99001.06
2022-11-19T22:17:49.343Z,98989.84
2022-11-19T22:21:01.863Z,98997.03
2022-11-19T22:24:07.894Z,98979.38
2022-11-19T22:27:13.085Z,98989.72
2022-11-19T22:30:17.093Z,98981.13
2022-11-19T22:33:20.774Z,99013.00
2022-11-19T22:36:25.253Z,99004.13
2022-11-19T22:39:29.109Z,99006.63
2022-11-19T22:42:34.261Z,99002.06
2022-11-19T22:45:37.923Z,98999.41
2022-11-19T22:48:41.736Z,99014.56
2022-11-19T22:51:45.494Z,99005.75
2022-11-19T22:54:49.293Z,99001.66
2022-11-19T22:57:54.522Z,98988.16
2022-11-19T23:01:01.122Z,98965.88
2022-11-19T23:04:07.324Z,98976.44
2022-11-19T23:07:11.146Z,98979.94
2022-11-19T23:10:14.995Z,98973.75
2022-11-19T23:13:34.180Z,98976.44
2022-11-19T23:16:38.842Z,99000.66
2022-11-19T23:19:42.761Z,98972.59
2022-11-19T23:22:48.152Z,98971.84
2022-11-19T23:25:55.881Z,98945.69
2022-11-19T23:29:01.132Z,98946.47
2022-11-19T23:32:04.901Z,98962.28
2022-11-19T23:35:09.360Z,98985.25
2022-11-19T23:38:12.951Z,98983.09
2022-11-19T23:41:18.635Z,99006.44
2022-11-19T23:44:24.130Z,98999.75
2022-11-19T23:47:30.431Z,98991.63
2022-11-19T23:50:34.361Z,99001.41
2022-11-19T23:53:38.383Z,98994.72
2022-11-19T23:56:42.527Z,99015.91
2022-11-19T23:59:47.780Z,98980.91
